^^
Saratoga-Weather Station Historical Data
Daily Summary for May 9, 2020 Units:  Both    English   Metric
Daily Weekly Monthly Yearly Custom
  High: Low: Average:
Temperature: 60.6 °F /  15.9 °C 56.1 °F /  13.4 °C 58.1 °F /  14.5 °C
Dew Point: 54 °F /  12.2 °C 52.9 °F /  11.6 °C 53.4 °F /  11.9 °C
Humidity: 90% 76% 85%
Wind Speed: 0mph /  0km/h - 0mph /  0km/h
Wind Gust: 0mph /  0km/h - -
Wind- -
Pressure: 30.3 in /  1024.4 hPa 30.2 in /  1023.0 hPa -
Precipitation: 0 in /  0.0 mm    
Historical Graphs
 
 
Tabular Data for May 9, 2020
Time Temperature Dew Point Pressure Wind Wind Speed Wind Gust Humidity Rainfall Rate (Hourly) solar
00:03 60.6 °F /  15.9 °C 53.1 °F /  11.7 °C 30.3in /  1024.4hPa Calm     76% 0in /  0.0mm 0 W/m2
00:08 60.6 °F /  15.9 °C 53.4 °F /  11.9 °C 30.3in /  1024.4hPa Calm     77% 0in /  0.0mm 0 W/m2
00:13 60.4 °F /  15.8 °C 53.6 °F /  12 °C 30.3in /  1024.4hPa Calm     78% 0in /  0.0mm 0 W/m2
00:18 60.4 °F /  15.8 °C 53.2 °F /  11.8 °C 30.2in /  1024.0hPa Calm     77% 0in /  0.0mm 0 W/m2
00:23 60.4 °F /  15.8 °C 53.6 °F /  12 °C 30.3in /  1024.4hPa Calm     78% 0in /  0.0mm 0 W/m2
00:28 60.3 °F /  15.7 °C 53.4 °F /  11.9 °C 30.2in /  1024.0hPa Calm     78% 0in /  0.0mm 0 W/m2
00:33 60.3 °F /  15.7 °C 53.8 °F /  12.1 °C 30.2in /  1024.0hPa Calm     79% 0in /  0.0mm 0 W/m2
00:38 60.1 °F /  15.6 °C 53.6 °F /  12 °C 30.2in /  1024.0hPa Calm     79% 0in /  0.0mm 0 W/m2
00:43 60.1 °F /  15.6 °C 53.6 °F /  12 °C 30.2in /  1024.0hPa Calm     79% 0in /  0.0mm 0 W/m2
00:48 59.9 °F /  15.5 °C 53.4 °F /  11.9 °C 30.2in /  1024.0hPa Calm     79% 0in /  0.0mm 0 W/m2
00:53 59.7 °F /  15.4 °C 53.6 °F /  12 °C 30.2in /  1024.0hPa Calm     80% 0in /  0.0mm 0 W/m2
00:58 59.5 °F /  15.3 °C 53.4 °F /  11.9 °C 30.2in /  1024.0hPa Calm     80% 0in /  0.0mm 0 W/m2
01:03 59.4 °F /  15.2 °C 53.6 °F /  12 °C 30.2in /  1024.0hPa Calm     81% 0in /  0.0mm 0 W/m2
01:08 59.2 °F /  15.1 °C 53.6 °F /  12 °C 30.2in /  1024.0hPa Calm     82% 0in /  0.0mm 0 W/m2
01:13 59 °F /  15 °C 53.8 °F /  12.1 °C 30.2in /  1024.0hPa Calm     83% 0in /  0.0mm 0 W/m2
01:18 58.8 °F /  14.9 °C 53.6 °F /  12 °C 30.2in /  1024.0hPa Calm     83% 0in /  0.0mm 0 W/m2
01:23 58.6 °F /  14.8 °C 53.8 °F /  12.1 °C 30.2in /  1024.0hPa Calm     84% 0in /  0.0mm 0 W/m2
01:28 58.6 °F /  14.8 °C 53.8 °F /  12.1 °C 30.2in /  1024.0hPa Calm     84% 0in /  0.0mm 0 W/m2
01:33 58.5 °F /  14.7 °C 54 °F /  12.2 °C 30.2in /  1024.0hPa Calm     85% 0in /  0.0mm 0 W/m2
01:38 58.3 °F /  14.6 °C 53.8 °F /  12.1 °C 30.2in /  1024.0hPa Calm     85% 0in /  0.0mm 0 W/m2
01:43 58.3 °F /  14.6 °C 53.8 °F /  12.1 °C 30.2in /  1024.0hPa Calm     85% 0in /  0.0mm 0 W/m2
01:48 58.3 °F /  14.6 °C 53.8 °F /  12.1 °C 30.2in /  1024.0hPa Calm     85% 0in /  0.0mm 0 W/m2
01:53 58.1 °F /  14.5 °C 53.6 °F /  12 °C 30.2in /  1024.0hPa Calm     85% 0in /  0.0mm 0 W/m2
01:58 57.9 °F /  14.4 °C 53.8 °F /  12.1 °C 30.2in /  1024.0hPa Calm     86% 0in /  0.0mm 0 W/m2
02:03 57.9 °F /  14.4 °C 53.8 °F /  12.1 °C 30.2in /  1024.0hPa Calm     86% 0in /  0.0mm 0 W/m2
02:08 57.7 °F /  14.3 °C 53.6 °F /  12 °C 30.2in /  1024.0hPa Calm     86% 0in /  0.0mm 0 W/m2
02:13 57.6 °F /  14.2 °C 53.4 °F /  11.9 °C 30.2in /  1024.0hPa Calm     86% 0in /  0.0mm 0 W/m2
02:18 57.6 °F /  14.2 °C 53.8 °F /  12.1 °C 30.2in /  1023.7hPa Calm     87% 0in /  0.0mm 0 W/m2
02:23 57.4 °F /  14.1 °C 53.6 °F /  12 °C 30.2in /  1023.7hPa Calm     87% 0in /  0.0mm 0 W/m2
02:28 57.4 °F /  14.1 °C 53.6 °F /  12 °C 30.2in /  1023.7hPa Calm     87% 0in /  0.0mm 0 W/m2
02:33 57.4 °F /  14.1 °C 53.6 °F /  12 °C 30.2in /  1023.7hPa Calm     87% 0in /  0.0mm 0 W/m2
02:38 57.2 °F /  14 °C 53.4 °F /  11.9 °C 30.2in /  1023.7hPa Calm     87% 0in /  0.0mm 0 W/m2
02:43 57 °F /  13.9 °C 53.2 °F /  11.8 °C 30.2in /  1023.7hPa Calm     87% 0in /  0.0mm 0 W/m2
02:48 56.8 °F /  13.8 °C 53.1 °F /  11.7 °C 30.2in /  1023.7hPa Calm     87% 0in /  0.0mm 0 W/m2
02:53 56.8 °F /  13.8 °C 53.2 °F /  11.8 °C 30.2in /  1023.4hPa Calm     88% 0in /  0.0mm 0 W/m2
02:58 56.7 °F /  13.7 °C 53.1 °F /  11.7 °C 30.2in /  1023.4hPa Calm     88% 0in /  0.0mm 0 W/m2
03:03 56.7 °F /  13.7 °C 53.1 °F /  11.7 °C 30.2in /  1023.4hPa Calm     88% 0in /  0.0mm 0 W/m2
03:08 56.5 °F /  13.6 °C 52.9 °F /  11.6 °C 30.2in /  1023.4hPa Calm     88% 0in /  0.0mm 0 W/m2
03:13 56.3 °F /  13.5 °C 53.1 °F /  11.7 °C 30.2in /  1023.4hPa Calm     89% 0in /  0.0mm 0 W/m2
03:19 56.1 °F /  13.4 °C 52.9 °F /  11.6 °C 30.2in /  1023.4hPa Calm     89% 0in /  0.0mm 0 W/m2
03:24 56.1 °F /  13.4 °C 52.9 °F /  11.6 °C 30.2in /  1023.4hPa Calm     89% 0in /  0.0mm 0 W/m2
03:29 56.1 °F /  13.4 °C 52.9 °F /  11.6 °C 30.2in /  1023.4hPa Calm     89% 0in /  0.0mm 0 W/m2
03:34 56.3 °F /  13.5 °C 53.4 °F /  11.9 °C 30.2in /  1023.4hPa Calm     90% 0in /  0.0mm 0 W/m2
03:39 56.1 °F /  13.4 °C 52.9 °F /  11.6 °C 30.2in /  1023.4hPa Calm     89% 0in /  0.0mm 0 W/m2
03:44 56.1 °F /  13.4 °C 52.9 °F /  11.6 °C 30.2in /  1023.4hPa Calm     89% 0in /  0.0mm 0 W/m2
03:49 56.1 °F /  13.4 °C 53.2 °F /  11.8 °C 30.2in /  1023.4hPa Calm     90% 0in /  0.0mm 0 W/m2
03:54 56.1 °F /  13.4 °C 53.2 °F /  11.8 °C 30.2in /  1023.0hPa Calm     90% 0in /  0.0mm 0 W/m2
03:59 56.1 °F /  13.4 °C 53.2 °F /  11.8 °C 30.2in /  1023.0hPa Calm     90% 0in /  0.0mm 0 W/m2
04:04 56.1 °F /  13.4 °C 53.2 °F /  11.8 °C 30.2in /  1023.0hPa Calm     90% 0in /  0.0mm 0 W/m2
Juneau County Weather
Compliments of Weather Underground - 2 mb